< < Back
Terminal Aerodrome Forecast


Current Version              Previous Versions:   1  2  3  4  5  6  7  8  9  

Terminal Aerodrome Forecast

644
FTUS44 KBMX 221100
TAFTCL
TAF
KTCL 221124Z 2212/2312 02005KT P6SM SKC
     FM221500 02008KT P6SM SKC
     FM230000 02003KT P6SM SKC=

Latest METAR

766
SAUS70 KWBC 230800 RRK
MTRTCL
METAR KTCL 230753Z AUTO 31004KT 10SM CLR 08/06 A3012 RMK AO2 SLP198
T00780056


USA.gov is the U.S. government's official web portal to all federal, state and local government web resources and services.